Eastern Lake Erie: Past 24 Hour Conditions

 

Wiarton Airport

02:00 AM EDT 31 August 2014
This table is a summary of hourly weather conditions for the past 24 hours.
Date / Time
(EDT)
Wind(knots) Conditions Visibility(km) Pressure(kPa) Air tempC) Relative humidity(%) Dew pointC) Humidex
31 August 2014
2:00 WSW 13 gust 20 Mostly Cloudy 24 101.0 22 86 20 30
1:00 SW 14 gust 19 Mostly Cloudy 24 101.0 23 83 20 30
0:00 SW 14 gust 25 Mostly Cloudy 24 101.0 23 82 19 30
30 August 2014
23:00 SSW 15 Mostly Cloudy 24 101.0 23 83 19 30
22:00 SW 13 gust 22 Cloudy 24 101.0 23 81 20 30
21:00 SSW 10 Light Rainshower 24 101.0 25 76 20 32
20:00 SSW 10 Cloudy 24 100.9 25 76 20 32
19:00 SSW 11 gust 16 Cloudy 24 101.0 25 78 21 33
18:00 SSW 9 Mostly Cloudy 24 101.0 26 80 22 35
17:00 SSW 5 Light Rain 19 101.0 24 89 22 33
16:00 SW 11 gust 21 Thunderstorm with light rainshowers 6 101.1 22 94 21 30
15:00 SSW 12 gust 18 Light Rain 10 101.2 24 86 21 32
14:00 SSW 15 gust 22 Cloudy 19 101.2 28 62 20 36
13:00 S 12 gust 18 Mostly Cloudy 24 101.2 28 63 20 36
12:00 S 14 gust 20 Partly Cloudy 24 101.2 27 65 19 34
11:00 S 12 Partly Cloudy 24 101.3 25 68 19 31
10:00 S 14 gust 21 Partly Cloudy 24 101.3 23 72 17 28
9:00 S 12 Cloudy 24 101.4 21 73 16 25
8:00 SSW 5 Cloudy 24 101.4 20 70 14 *
7:00 S 13 Mostly Cloudy 24 101.4 19 71 14 *
6:00 S 11 gust 18 Cloudy 24 101.4 19 71 14 *
5:00 S 10 gust 16 Light Rain 24 101.5 18 76 14 *
4:00 S 13 gust 20 Mostly Cloudy 24 101.5 19 65 13 *
3:00 S 15 gust 22 Cloudy 24 101.5 19 63 12 *
2:00 S 14 Cloudy 24 101.6 19 63 12 *
 
Map of Great Lakes - Lake Erie and Lake Ontario marine weather areas Egbert N Huron - 45003 W Erie - 45005 S Huron - 45008 Lake Ontario - 45012 Port Stanley - 45132 Prince Edward Point - 45135 Georgian Bay - 45137 Grimsby - 45139 Port Colborne - 45142 South Georgian Bay - 45143 Lake St Clair - 45147 South Lake Huron - 45149 Lake Simcoe - 45151 Lake Nipissing - 45152 North Channel - 45154 Ajax - 45159 Sault Ste. Marie Airport Greater Sudbury Airport North Bay Airport Gore Bay-Manitoulin Airport Great Duck Island Brockville Grenadier Island Kemptville Kingston Airport Collingwood Lagoon City Muskoka Airport Parry Sound Harbour Lake Simcoe Regional Airport Wiarton Airport Goderich Sarnia Chris Hadfield Airport Tobermory Harrow AAFC Port Weller St. Catharines Airport Southeast Shoal Vineland Station Welland-Pelham Windsor Airport Burlington Lift Bridge Cobourg Hamilton Munro Int'l Airport Oshawa Municipal Airport Point Petre Toronto City Centre Airport Toronto Pearson Int'l Airport CFB Trenton Peterborough Municipal Airport Killarney Western Islands CFB Borden Cove Island Long Point Port Colborne Erieau Point Pelee Toronto Buttonville Municipal Airport
Legend: buoyBuoy land stationLand Station » US Marine Weather